createdAt,value
2017-09-30T00:00:11.164Z,97146.50
2017-09-30T00:02:38.655Z,97144.27
2017-09-30T00:05:06.128Z,97139.05
2017-09-30T00:07:33.646Z,97143.36
2017-09-30T00:10:01.117Z,97141.27
2017-09-30T00:12:28.564Z,97143.58
2017-09-30T00:14:56.441Z,97142.52
2017-09-30T00:17:23.947Z,97140.72
2017-09-30T00:19:51.391Z,97138.53
2017-09-30T00:22:18.894Z,97137.98
2017-09-30T00:24:46.415Z,97130.83
2017-09-30T00:27:13.904Z,97131.25
2017-09-30T00:29:41.402Z,97133.99
2017-09-30T00:32:08.929Z,97138.53
2017-09-30T00:34:36.371Z,97139.90
2017-09-30T00:37:03.934Z,97132.33
2017-09-30T00:39:31.398Z,97136.53
2017-09-30T00:41:58.860Z,97136.01
2017-09-30T00:44:26.816Z,97134.04
2017-09-30T00:46:54.286Z,97132.97
2017-09-30T00:49:21.874Z,97133.05
2017-09-30T00:51:49.484Z,97124.62
2017-09-30T00:54:16.954Z,97118.84
2017-09-30T00:56:44.431Z,97126.86
2017-09-30T00:59:12.002Z,97115.25
2017-09-30T01:01:39.500Z,97113.23
2017-09-30T01:04:06.960Z,97118.84
2017-09-30T01:06:34.483Z,97114.52
2017-09-30T01:09:01.993Z,97117.98
2017-09-30T01:11:29.466Z,97122.23
2017-09-30T01:13:56.995Z,97116.82
2017-09-30T01:16:24.455Z,97116.09
2017-09-30T01:18:51.922Z,97118.71
2017-09-30T01:21:19.436Z,97115.16
2017-09-30T01:23:46.917Z,97112.34
2017-09-30T01:26:14.368Z,97116.31
2017-09-30T01:28:41.866Z,97114.95
2017-09-30T01:31:09.343Z,97113.48
2017-09-30T01:33:36.871Z,97115.97
2017-09-30T01:36:05.198Z,97113.36
2017-09-30T01:38:32.658Z,97113.16
2017-09-30T01:41:00.109Z,97114.86
2017-09-30T01:43:27.646Z,97115.25
2017-09-30T01:45:55.248Z,97117.05
2017-09-30T01:48:22.713Z,97116.31
2017-09-30T01:50:50.211Z,97111.69
2017-09-30T01:53:17.671Z,97106.93
2017-09-30T01:55:45.155Z,97111.98
2017-09-30T01:58:12.699Z,97102.52
2017-09-30T02:00:40.189Z,97105.66
2017-09-30T02:03:07.647Z,97109.38
2017-09-30T02:05:35.163Z,97098.98
2017-09-30T02:08:02.684Z,97099.45
2017-09-30T02:10:30.172Z,97097.78
2017-09-30T02:12:58.147Z,97089.34
2017-09-30T02:15:25.621Z,97089.34
2017-09-30T02:17:53.101Z,97087.54
2017-09-30T02:20:20.906Z,97086.72
2017-09-30T02:22:48.390Z,97079.97
2017-09-30T02:25:15.862Z,97081.89
2017-09-30T02:27:43.371Z,97076.41
2017-09-30T02:30:10.907Z,97072.30
2017-09-30T02:32:38.369Z,97075.86
2017-09-30T02:35:05.902Z,97074.70
2017-09-30T02:37:33.369Z,97074.48
2017-09-30T02:40:00.824Z,97080.09
2017-09-30T02:42:28.311Z,97079.15
2017-09-30T02:44:55.774Z,97081.89
2017-09-30T02:47:23.237Z,97083.05
2017-09-30T02:49:51.056Z,97079.24
2017-09-30T02:52:19.571Z,97086.00
2017-09-30T02:54:47.027Z,97099.50
2017-09-30T02:57:14.892Z,97098.98
2017-09-30T02:59:42.381Z,97099.58
2017-09-30T03:02:09.841Z,97100.22
2017-09-30T03:04:37.343Z,97094.22
2017-09-30T03:07:04.954Z,97099.70
2017-09-30T03:09:32.484Z,97100.05
2017-09-30T03:11:59.998Z,97103.61
2017-09-30T03:14:27.525Z,97108.58
2017-09-30T03:16:55.010Z,97109.52
2017-09-30T03:19:22.566Z,97105.53
2017-09-30T03:21:50.020Z,97110.34
2017-09-30T03:24:17.479Z,97113.08
2017-09-30T03:26:45.068Z,97110.47
2017-09-30T03:29:12.522Z,97094.87
2017-09-30T03:31:39.995Z,97088.76
2017-09-30T03:34:07.529Z,97080.45
2017-09-30T03:36:34.999Z,97083.11
2017-09-30T03:39:02.459Z,97079.59
2017-09-30T03:41:30.423Z,97086.27
2017-09-30T03:43:57.865Z,97090.78
2017-09-30T03:46:25.312Z,97091.83
2017-09-30T03:48:52.800Z,97098.69
2017-09-30T03:51:20.795Z,97095.73
2017-09-30T03:53:48.257Z,97094.23
2017-09-30T03:56:15.840Z,97089.83
2017-09-30T03:58:43.324Z,97086.02
2017-09-30T04:01:10.885Z,97079.50
2017-09-30T04:03:38.381Z,97083.19
2017-09-30T04:06:05.853Z,97082.98
2017-09-30T04:08:33.297Z,97087.52
2017-09-30T04:11:01.071Z,97086.37
2017-09-30T04:13:28.528Z,97089.95
2017-09-30T04:15:55.984Z,97093.52
2017-09-30T04:18:23.571Z,97095.61
2017-09-30T04:20:51.049Z,97105.84
2017-09-30T04:23:18.506Z,97091.20
2017-09-30T04:25:46.053Z,97096.03
2017-09-30T04:28:13.603Z,97094.49
2017-09-30T04:30:41.118Z,97096.25
2017-09-30T04:33:09.192Z,97079.42
2017-09-30T04:35:36.644Z,97087.86
2017-09-30T04:38:04.091Z,97084.18
2017-09-30T04:40:32.029Z,97085.42
2017-09-30T04:42:59.479Z,97081.91
2017-09-30T04:45:26.946Z,97086.14
2017-09-30T04:47:54.789Z,97079.42
2017-09-30T04:50:22.263Z,97078.27
2017-09-30T04:52:49.727Z,97078.70
2017-09-30T04:55:17.510Z,97077.84
2017-09-30T04:57:44.973Z,97077.75
2017-09-30T05:00:12.424Z,97083.55
2017-09-30T05:02:40.614Z,97078.40
2017-09-30T05:05:08.086Z,97075.95
2017-09-30T05:07:35.540Z,97080.16
2017-09-30T05:10:03.161Z,97086.62
2017-09-30T05:12:30.620Z,97082.18
2017-09-30T05:14:58.082Z,97085.56
2017-09-30T05:17:25.590Z,97087.78
2017-09-30T05:19:53.094Z,97083.75
2017-09-30T05:22:20.580Z,97082.52
2017-09-30T05:24:48.220Z,97071.86
2017-09-30T05:27:15.681Z,97079.99
2017-09-30T05:29:43.186Z,97076.48
2017-09-30T05:32:10.727Z,97075.45
2017-09-30T05:34:38.190Z,97069.33
2017-09-30T05:37:05.657Z,97078.33
2017-09-30T05:39:33.225Z,97072.30
2017-09-30T05:42:00.676Z,97073.56
2017-09-30T05:44:28.135Z,97071.22
2017-09-30T05:46:55.626Z,97072.27
2017-09-30T05:49:23.105Z,97073.44
2017-09-30T05:51:50.610Z,97070.83
2017-09-30T05:54:18.489Z,97067.66
2017-09-30T05:56:45.942Z,97067.53
2017-09-30T05:59:13.422Z,97067.02
2017-09-30T06:01:40.928Z,97064.37
2017-09-30T06:04:08.399Z,97064.14
2017-09-30T06:06:35.862Z,97070.70
2017-09-30T06:09:03.406Z,97069.13
2017-09-30T06:11:30.884Z,97071.34
2017-09-30T06:13:58.346Z,97065.44
2017-09-30T06:16:25.840Z,97065.99
2017-09-30T06:18:53.305Z,97067.16
2017-09-30T06:21:20.800Z,97063.12
2017-09-30T06:23:48.366Z,97048.05
2017-09-30T06:26:15.829Z,97053.11
2017-09-30T06:28:43.276Z,97056.70
2017-09-30T06:31:10.907Z,97055.12
2017-09-30T06:33:38.409Z,97054.61
2017-09-30T06:36:05.861Z,97062.23
2017-09-30T06:38:33.400Z,97061.25
2017-09-30T06:41:00.896Z,97051.44
2017-09-30T06:43:28.371Z,97058.42
2017-09-30T06:45:56.258Z,97059.06
2017-09-30T06:48:23.737Z,97066.14
2017-09-30T06:50:51.266Z,97068.31
2017-09-30T06:53:18.754Z,97066.36
2017-09-30T06:55:46.215Z,97062.98
2017-09-30T06:58:13.776Z,97064.22
2017-09-30T07:00:41.283Z,97060.63
2017-09-30T07:03:08.732Z,97064.52
2017-09-30T07:05:36.214Z,97061.78
2017-09-30T07:08:03.715Z,97057.45
2017-09-30T07:10:31.210Z,97064.17
2017-09-30T07:12:58.692Z,97062.28
2017-09-30T07:15:26.460Z,97061.16
2017-09-30T07:17:53.942Z,97067.66
2017-09-30T07:20:21.442Z,97066.19
2017-09-30T07:22:49.400Z,97062.25
2017-09-30T07:25:17.015Z,97064.13
2017-09-30T07:27:44.516Z,97064.94
2017-09-30T07:30:12.049Z,97060.58
2017-09-30T07:32:39.617Z,97055.47
2017-09-30T07:35:07.063Z,97050.86
2017-09-30T07:37:34.940Z,97046.66
2017-09-30T07:40:02.361Z,97046.17
2017-09-30T07:42:29.779Z,97040.95
2017-09-30T07:44:57.235Z,97041.64
2017-09-30T07:47:24.653Z,97043.00
2017-09-30T07:49:52.132Z,97045.06
2017-09-30T07:52:19.605Z,97043.78
2017-09-30T07:54:47.062Z,97047.38
2017-09-30T07:57:14.470Z,97045.88
2017-09-30T07:59:42.312Z,97045.80
2017-09-30T08:02:09.836Z,97044.44
2017-09-30T08:04:37.252Z,97041.64
2017-09-30T08:07:05.209Z,97048.17
2017-09-30T08:09:32.607Z,97048.17
2017-09-30T08:12:00.018Z,97050.36
2017-09-30T08:14:27.465Z,97042.89
2017-09-30T08:16:54.886Z,97038.35
2017-09-30T08:19:22.284Z,97032.88
2017-09-30T08:21:49.868Z,97032.77
2017-09-30T08:24:17.281Z,97027.91
2017-09-30T08:26:44.690Z,97026.87
2017-09-30T08:29:12.184Z,97022.75
2017-09-30T08:31:39.603Z,97020.53
2017-09-30T08:34:07.095Z,97009.77
2017-09-30T08:36:34.527Z,97005.66
2017-09-30T08:39:01.966Z,97005.01
2017-09-30T08:41:29.375Z,97009.05
2017-09-30T08:43:56.839Z,97001.97
2017-09-30T08:46:24.254Z,96996.36
2017-09-30T08:48:51.710Z,96994.34
2017-09-30T08:51:19.351Z,96998.32
2017-09-30T08:53:46.791Z,97000.77
2017-09-30T08:56:14.204Z,97002.04
2017-09-30T08:58:41.759Z,96995.06
2017-09-30T09:01:09.286Z,96989.70
2017-09-30T09:03:36.721Z,96987.12
2017-09-30T09:06:04.279Z,96989.28
2017-09-30T09:08:31.801Z,96984.61
2017-09-30T09:10:59.313Z,96988.33
2017-09-30T09:13:26.768Z,96983.08
2017-09-30T09:15:54.179Z,96980.33
2017-09-30T09:18:21.599Z,96981.28
2017-09-30T09:20:49.247Z,96973.19
2017-09-30T09:23:16.669Z,96972.53
2017-09-30T09:25:44.154Z,96971.69
2017-09-30T09:28:11.594Z,96972.41
2017-09-30T09:30:39.019Z,96969.23
2017-09-30T09:33:06.437Z,96969.66
2017-09-30T09:35:33.904Z,96960.52
2017-09-30T09:38:01.314Z,96955.89
2017-09-30T09:40:28.728Z,96955.59
2017-09-30T09:42:56.187Z,96946.52
2017-09-30T09:45:23.600Z,96945.12
2017-09-30T09:47:51.078Z,96941.83
2017-09-30T09:50:18.676Z,96944.86
2017-09-30T09:52:46.099Z,96934.25
2017-09-30T09:55:13.526Z,96936.34
2017-09-30T09:57:41.157Z,96935.82
2017-09-30T10:00:09.538Z,96925.80
2017-09-30T10:02:36.946Z,96928.97
2017-09-30T10:05:04.428Z,96922.83
2017-09-30T10:07:31.839Z,96924.20
2017-09-30T10:09:59.249Z,96922.56
2017-09-30T10:12:26.707Z,96920.55
2017-09-30T10:14:54.128Z,96922.41
2017-09-30T10:17:21.572Z,96920.81
2017-09-30T10:19:49.073Z,96919.11
2017-09-30T10:22:16.626Z,96917.09
2017-09-30T10:24:44.114Z,96919.08
2017-09-30T10:27:20.431Z,96922.25
2017-09-30T10:29:47.906Z,96917.94
2017-09-30T10:32:15.345Z,96922.34
2017-09-30T10:34:43.217Z,96918.23
2017-09-30T10:37:10.661Z,96918.36
2017-09-30T10:39:38.253Z,96917.06
2017-09-30T10:42:05.759Z,96917.78
2017-09-30T10:44:33.202Z,96913.77
2017-09-30T10:47:00.639Z,96913.47
2017-09-30T10:49:28.237Z,96907.56
2017-09-30T10:51:55.691Z,96912.03
2017-09-30T10:54:23.228Z,96904.59
2017-09-30T10:56:50.672Z,96909.94
2017-09-30T10:59:18.078Z,96906.97
2017-09-30T11:01:45.525Z,96905.47
2017-09-30T11:04:13.334Z,96911.61
2017-09-30T11:06:40.774Z,96905.24
2017-09-30T11:09:08.192Z,96901.19
2017-09-30T11:11:35.685Z,96902.34
2017-09-30T11:14:03.107Z,96899.47
2017-09-30T11:16:30.519Z,96904.52
2017-09-30T11:18:58.415Z,96899.76
2017-09-30T11:21:25.989Z,96898.26
2017-09-30T11:23:53.409Z,96896.23
2017-09-30T11:26:20.855Z,96892.67
2017-09-30T11:28:48.271Z,96884.03
2017-09-30T11:31:15.701Z,96891.41
2017-09-30T11:33:43.670Z,96885.83
2017-09-30T11:36:11.116Z,96884.55
2017-09-30T11:38:38.577Z,96879.48
2017-09-30T11:41:06.105Z,96877.70
2017-09-30T11:43:33.532Z,96866.05
2017-09-30T11:46:00.963Z,96871.53
2017-09-30T11:48:28.410Z,96870.16
2017-09-30T11:50:55.901Z,96865.91
2017-09-30T11:53:23.373Z,96867.94
2017-09-30T11:55:50.832Z,96866.56
2017-09-30T11:58:18.247Z,96869.30
2017-09-30T12:00:45.668Z,96864.05
2017-09-30T12:03:13.445Z,96863.89
2017-09-30T12:05:40.847Z,96864.97
2017-09-30T12:08:08.255Z,96861.90
2017-09-30T12:10:36.008Z,96862.62
2017-09-30T12:13:03.454Z,96859.13
2017-09-30T12:15:30.867Z,96858.99
2017-09-30T12:17:58.356Z,96863.95
2017-09-30T12:20:25.760Z,96858.86
2017-09-30T12:22:53.186Z,96855.30
2017-09-30T12:25:20.657Z,96854.09
2017-09-30T12:27:48.081Z,96849.47
2017-09-30T12:30:15.512Z,96850.55
2017-09-30T12:32:42.968Z,96848.75
2017-09-30T12:35:10.431Z,96848.75
2017-09-30T12:37:37.892Z,96853.09
2017-09-30T12:40:05.647Z,96846.85
2017-09-30T12:42:33.178Z,96844.80
2017-09-30T12:45:00.722Z,96845.41
2017-09-30T12:47:28.617Z,96847.20
2017-09-30T12:49:56.074Z,96846.23
2017-09-30T12:52:23.499Z,96845.05
2017-09-30T12:54:50.954Z,96848.75
2017-09-30T12:57:18.369Z,96845.48
2017-09-30T12:59:45.861Z,96849.04
2017-09-30T13:02:13.638Z,96843.63
2017-09-30T13:04:41.090Z,96845.64
2017-09-30T13:07:08.546Z,96839.64
2017-09-30T13:09:36.086Z,96840.81
2017-09-30T13:12:03.552Z,96839.22
2017-09-30T13:14:30.957Z,96837.84
2017-09-30T13:16:58.814Z,96840.36
2017-09-30T13:19:26.228Z,96834.88
2017-09-30T13:21:53.640Z,96837.61
2017-09-30T13:24:21.244Z,96833.50
2017-09-30T13:26:48.654Z,96834.16
2017-09-30T13:29:16.071Z,96836.41
2017-09-30T13:31:43.844Z,96831.50
2017-09-30T13:34:11.257Z,96836.11
2017-09-30T13:36:38.686Z,96835.03
2017-09-30T13:39:06.147Z,96834.31
2017-09-30T13:41:33.633Z,96837.31
2017-09-30T13:44:01.127Z,96835.45
2017-09-30T13:46:28.882Z,96833.66
2017-09-30T13:48:56.299Z,96838.62
2017-09-30T13:51:24.339Z,96840.22
2017-09-30T13:53:51.992Z,96829.55
2017-09-30T13:56:19.445Z,96832.42
2017-09-30T13:58:46.891Z,96840.35
2017-09-30T14:01:14.471Z,96839.44
2017-09-30T14:03:41.883Z,96838.91
2017-09-30T14:06:09.296Z,96845.34
2017-09-30T14:08:36.764Z,96849.66
2017-09-30T14:11:04.333Z,96846.42
2017-09-30T14:13:31.801Z,96850.17
2017-09-30T14:15:59.599Z,96843.91
2017-09-30T14:18:27.015Z,96842.53
2017-09-30T14:20:54.499Z,96844.47
2017-09-30T14:23:21.951Z,96837.97
2017-09-30T14:25:50.062Z,96833.72
2017-09-30T14:28:17.483Z,96832.52
2017-09-30T14:30:44.929Z,96838.62
2017-09-30T14:33:12.359Z,96835.45
2017-09-30T14:35:39.845Z,96843.38
2017-09-30T14:38:07.401Z,96843.19
2017-09-30T14:40:34.812Z,96846.77
2017-09-30T14:43:02.239Z,96847.20
2017-09-30T14:45:29.693Z,96844.03
2017-09-30T14:47:57.354Z,96850.37
2017-09-30T14:50:24.766Z,96845.83
2017-09-30T14:52:52.449Z,96852.13
2017-09-30T14:55:19.942Z,96854.88
2017-09-30T14:57:47.362Z,96854.42
2017-09-30T15:00:14.992Z,96857.32
2017-09-30T15:02:42.486Z,96865.25
2017-09-30T15:05:09.912Z,96866.49
2017-09-30T15:07:37.384Z,96868.13
2017-09-30T15:10:05.416Z,96868.19
2017-09-30T15:12:32.946Z,96865.97
2017-09-30T15:15:00.395Z,96870.94
2017-09-30T15:17:27.822Z,96880.62
2017-09-30T15:19:55.821Z,96879.69
2017-09-30T15:22:23.682Z,96888.14
2017-09-30T15:24:51.125Z,96891.59
2017-09-30T15:27:18.615Z,96890.13
2017-09-30T15:29:46.076Z,96891.95
2017-09-30T15:32:13.494Z,96892.80
2017-09-30T15:34:40.910Z,96895.64
2017-09-30T15:37:08.444Z,96902.83
2017-09-30T15:39:35.960Z,96904.23
2017-09-30T15:42:03.431Z,96905.60
2017-09-30T15:44:31.257Z,96910.14
2017-09-30T15:46:58.678Z,96904.95
2017-09-30T15:49:26.085Z,96917.36
2017-09-30T15:51:53.887Z,96924.08
2017-09-30T15:54:21.348Z,96929.34
2017-09-30T15:56:48.793Z,96918.66
2017-09-30T15:59:16.317Z,96917.00
2017-09-30T16:01:43.741Z,96929.05
2017-09-30T16:04:11.287Z,96931.78
2017-09-30T16:06:38.911Z,96931.72
2017-09-30T16:09:06.328Z,96928.87
2017-09-30T16:11:33.744Z,96928.87
2017-09-30T16:14:01.473Z,96932.30
2017-09-30T16:16:29.503Z,96934.95
2017-09-30T16:18:56.962Z,96939.73
2017-09-30T16:21:24.775Z,96940.30
2017-09-30T16:23:52.259Z,96945.55
2017-09-30T16:26:19.826Z,96956.97
2017-09-30T16:28:47.481Z,96967.16
2017-09-30T16:31:14.965Z,96970.81
2017-09-30T16:33:42.375Z,96969.98
2017-09-30T16:36:09.846Z,96974.16
2017-09-30T16:38:37.266Z,96979.28
2017-09-30T16:41:04.680Z,96986.70
2017-09-30T16:43:32.160Z,96987.86
2017-09-30T16:45:59.598Z,96998.31
2017-09-30T16:48:27.020Z,96992.11
2017-09-30T16:50:54.476Z,97002.20
2017-09-30T16:53:21.923Z,97003.67
2017-09-30T16:55:49.353Z,97004.52
2017-09-30T16:58:16.811Z,97006.84
2017-09-30T17:00:44.225Z,97008.98
2017-09-30T17:03:11.659Z,97004.97
2017-09-30T17:05:39.223Z,97007.32
2017-09-30T17:08:06.642Z,97007.06
2017-09-30T17:10:34.047Z,97006.41
2017-09-30T17:13:01.581Z,97014.11
2017-09-30T17:15:29.017Z,97014.41
2017-09-30T17:17:56.449Z,97009.88
2017-09-30T17:20:25.020Z,97013.47
2017-09-30T17:22:52.502Z,97010.42
2017-09-30T17:25:19.907Z,97011.80
2017-09-30T17:27:47.772Z,97019.17
2017-09-30T17:30:15.192Z,97020.42
2017-09-30T17:32:42.615Z,97011.38
2017-09-30T17:35:10.245Z,97012.52
2017-09-30T17:37:37.740Z,97024.44
2017-09-30T17:40:05.190Z,97027.17
2017-09-30T17:42:32.701Z,97030.02
2017-09-30T17:45:00.117Z,97026.88
2017-09-30T17:47:27.596Z,97023.16
2017-09-30T17:49:55.414Z,97031.52
2017-09-30T17:52:22.826Z,97034.78
2017-09-30T17:54:50.366Z,97037.42
2017-09-30T17:57:17.932Z,97036.16
2017-09-30T17:59:45.357Z,97041.77
2017-09-30T18:02:12.825Z,97046.59
2017-09-30T18:04:40.395Z,97048.39
2017-09-30T18:07:07.897Z,97052.51
2017-09-30T18:09:35.346Z,97061.11
2017-09-30T18:12:02.871Z,97060.39
2017-09-30T18:14:30.296Z,97063.55
2017-09-30T18:16:57.711Z,97063.27
2017-09-30T18:19:25.153Z,97067.92
2017-09-30T18:21:53.579Z,97067.92
2017-09-30T18:24:20.996Z,97063.09
2017-09-30T18:26:48.946Z,97076.75
2017-09-30T18:29:16.354Z,97079.66
2017-09-30T18:31:43.795Z,97083.55
2017-09-30T18:34:11.288Z,97087.49
2017-09-30T18:36:38.859Z,97095.52
2017-09-30T18:39:06.287Z,97091.34
2017-09-30T18:41:33.821Z,97098.20
2017-09-30T18:44:01.248Z,97092.33
2017-09-30T18:46:28.679Z,97107.20
2017-09-30T18:48:57.092Z,97106.86
2017-09-30T18:51:24.601Z,97114.66
2017-09-30T18:53:52.742Z,97114.01
2017-09-30T18:56:20.213Z,97124.68
2017-09-30T18:58:47.610Z,97131.11
2017-09-30T19:01:15.067Z,97134.27
2017-09-30T19:03:42.554Z,97134.83
2017-09-30T19:06:09.991Z,97139.24
2017-09-30T19:08:37.398Z,97137.74
2017-09-30T19:11:04.855Z,97139.53
2017-09-30T19:13:32.316Z,97141.73
2017-09-30T19:15:59.736Z,97138.69
2017-09-30T19:18:27.214Z,97139.77
2017-09-30T19:20:54.643Z,97157.59
2017-09-30T19:23:22.066Z,97151.97
2017-09-30T19:25:49.851Z,97158.95
2017-09-30T19:28:17.503Z,97158.53
2017-09-30T19:30:44.932Z,97165.22
2017-09-30T19:33:12.416Z,97165.73
2017-09-30T19:35:39.852Z,97177.98
2017-09-30T19:38:07.292Z,97177.12
2017-09-30T19:40:34.791Z,97185.78
2017-09-30T19:43:02.243Z,97181.67
2017-09-30T19:45:29.812Z,97182.81
2017-09-30T19:47:57.273Z,97190.91
2017-09-30T19:50:24.727Z,97191.22
2017-09-30T19:52:52.269Z,97197.77
2017-09-30T19:55:19.720Z,97199.66
2017-09-30T19:57:47.151Z,97194.18
2017-09-30T20:00:14.582Z,97194.73
2017-09-30T20:02:42.047Z,97196.10
2017-09-30T20:05:09.496Z,97191.56
2017-09-30T20:07:36.970Z,97197.47
2017-09-30T20:10:06.002Z,97198.00
2017-09-30T20:12:33.638Z,97211.70
2017-09-30T20:15:01.118Z,97211.83
2017-09-30T20:17:28.790Z,97214.67
2017-09-30T20:19:56.265Z,97222.50
2017-09-30T20:22:23.754Z,97224.81
2017-09-30T20:24:51.715Z,97226.28
2017-09-30T20:27:19.168Z,97230.82
2017-09-30T20:29:46.712Z,97223.45
2017-09-30T20:32:14.336Z,97227.01
2017-09-30T20:34:41.813Z,97227.01
2017-09-30T20:37:09.280Z,97228.80
2017-09-30T20:39:36.814Z,97223.32
2017-09-30T20:42:04.954Z,97221.65
2017-09-30T20:44:32.372Z,97224.27
2017-09-30T20:46:59.918Z,97218.48
2017-09-30T20:49:27.336Z,97223.80
2017-09-30T20:51:54.785Z,97226.83
2017-09-30T20:54:22.623Z,97230.25
2017-09-30T20:56:50.114Z,97232.77
2017-09-30T20:59:17.548Z,97231.83
2017-09-30T21:01:45.401Z,97242.37
2017-09-30T21:04:12.839Z,97249.01
2017-09-30T21:06:40.251Z,97258.61
2017-09-30T21:09:07.712Z,97262.72
2017-09-30T21:11:35.154Z,97261.02
2017-09-30T21:14:02.580Z,97271.81
2017-09-30T21:16:30.094Z,97271.94
2017-09-30T21:18:57.572Z,97269.84
2017-09-30T21:21:25.006Z,97271.09
2017-09-30T21:23:52.518Z,97273.41
2017-09-30T21:26:20.025Z,97271.52
2017-09-30T21:28:47.530Z,97275.20
2017-09-30T21:31:15.043Z,97271.94
2017-09-30T21:33:42.638Z,97274.68
2017-09-30T21:36:10.101Z,97275.20
2017-09-30T21:38:37.629Z,97281.54
2017-09-30T21:41:05.039Z,97278.37
2017-09-30T21:43:32.456Z,97286.05
2017-09-30T21:46:00.340Z,97286.30
2017-09-30T21:48:27.759Z,97291.45
2017-09-30T21:50:55.179Z,97299.03
2017-09-30T21:53:22.632Z,97300.66
2017-09-30T21:55:50.055Z,97298.00
2017-09-30T21:58:17.487Z,97303.73
2017-09-30T22:00:44.948Z,97306.05
2017-09-30T22:03:12.363Z,97299.94
2017-09-30T22:05:39.783Z,97302.80
2017-09-30T22:08:07.250Z,97301.66
2017-09-30T22:10:34.668Z,97302.84
2017-09-30T22:13:02.110Z,97306.75
2017-09-30T22:15:29.556Z,97302.25
2017-09-30T22:17:56.984Z,97304.66
2017-09-30T22:20:24.390Z,97306.92
2017-09-30T22:22:51.877Z,97309.36
2017-09-30T22:25:19.292Z,97319.77
2017-09-30T22:27:46.731Z,97322.61
2017-09-30T22:30:14.271Z,97322.94
2017-09-30T22:32:41.692Z,97319.87
2017-09-30T22:35:09.117Z,97323.13
2017-09-30T22:37:36.594Z,97324.50
2017-09-30T22:40:04.082Z,97328.73
2017-09-30T22:42:31.532Z,97331.78
2017-09-30T22:44:59.062Z,97323.98
2017-09-30T22:47:27.131Z,97325.47
2017-09-30T22:49:54.547Z,97326.20
2017-09-30T22:52:22.023Z,97325.13
2017-09-30T22:54:49.435Z,97323.37
2017-09-30T22:57:16.905Z,97325.69
2017-09-30T22:59:44.478Z,97336.65
2017-09-30T23:02:11.893Z,97332.96
2017-09-30T23:04:39.312Z,97336.83
2017-09-30T23:07:07.112Z,97339.81
2017-09-30T23:09:34.531Z,97340.77
2017-09-30T23:12:01.931Z,97348.98
2017-09-30T23:14:29.439Z,97342.65
2017-09-30T23:16:56.859Z,97338.63
2017-09-30T23:19:24.261Z,97337.38
2017-09-30T23:21:51.735Z,97336.41
2017-09-30T23:24:19.164Z,97337.05
2017-09-30T23:26:46.574Z,97347.50
2017-09-30T23:29:14.040Z,97346.04
2017-09-30T23:31:41.488Z,97343.30
2017-09-30T23:34:08.888Z,97342.23
2017-09-30T23:36:36.819Z,97346.89
2017-09-30T23:39:04.234Z,97342.14
2017-09-30T23:41:31.660Z,97343.17
2017-09-30T23:43:59.186Z,97346.04
2017-09-30T23:46:26.595Z,97347.41
2017-09-30T23:48:54.016Z,97340.05
2017-09-30T23:51:21.509Z,97343.52
2017-09-30T23:53:48.952Z,97351.27
2017-09-30T23:56:16.406Z,97354.42
2017-09-30T23:58:43.851Z,97353.27
